Time;durP1;ratioP1;P1;durP2;ratioP2;P2;SDS_P1;SDS_P2;PMS_P1;PMS_P2;Temp;Humidity;BMP_temperature;BMP_pressure;BME280_temperature;BME280_humidity;BME280_pressure;Samples;Min_cycle;Max_cycle;Signal;HPM_P1;HPM_P2
2023/09/27 00:00:44;;;;;;;;;51.50;43.00;;;;;23.87;100.00;101311.91;2108194;27;46587;-59
2023/09/27 00:01:44;;;;;;;;;54.25;42.50;;;;;23.86;100.00;101308.31;2113583;27;46378;-65
2023/09/27 00:02:46;;;;;;;;;50.75;42.25;;;;;23.86;100.00;101312.88;2110035;27;46263;-64
2023/09/27 00:03:47;;;;;;;;;46.40;38.20;;;;;23.85;100.00;101314.72;2113065;27;46433;-63
2023/09/27 00:04:48;;;;;;;;;50.00;41.20;;;;;23.83;100.00;101318.50;2104730;28;46412;-65
2023/09/27 00:05:48;;;;;;;;;42.00;35.25;;;;;23.82;100.00;101325.78;2110952;27;46787;-64
2023/09/27 00:06:50;;;;;;;;;32.50;30.00;;;;;23.82;100.00;101323.06;2112878;27;46583;-62
2023/09/27 00:07:53;;;;;;;;;22.00;21.00;;;;;23.82;100.00;101325.78;2113336;27;46513;-63
2023/09/27 00:08:53;;;;;;;;;24.60;21.80;;;;;23.80;100.00;101326.84;2112974;27;46972;-68
2023/09/27 00:09:54;;;;;;;;;22.75;22.50;;;;;23.78;100.00;101333.25;2113707;27;46240;-64
2023/09/27 00:10:54;;;;;;;;;23.75;22.75;;;;;23.78;100.00;101335.09;2115850;27;46544;-59
2023/09/27 00:11:55;;;;;;;;;26.25;25.00;;;;;23.80;100.00;101326.84;2112952;27;46748;-61
2023/09/27 00:12:55;;;;;;;;;32.00;28.75;;;;;23.77;100.00;101326.09;2112353;27;46283;-64
2023/09/27 00:13:55;;;;;;;;;29.50;29.00;;;;;23.78;100.00;101322.41;2111859;27;46434;-54
2023/09/27 00:14:57;;;;;;;;;47.25;40.25;;;;;23.79;100.00;101320.56;2112954;27;46655;-64
2023/09/27 00:15:57;;;;;;;;;48.40;39.60;;;;;23.81;100.00;101317.75;2113334;27;46423;-64
2023/09/27 00:16:58;;;;;;;;;46.00;38.75;;;;;23.82;100.00;101327.63;2112966;27;46503;-63
2023/09/27 00:17:58;;;;;;;;;31.75;29.50;;;;;23.82;100.00;101324.91;2112561;27;46376;-62
2023/09/27 00:18:59;;;;;;;;;23.00;21.75;;;;;23.82;100.00;101319.50;2112459;27;46661;-60
2023/09/27 00:19:59;;;;;;;;;21.50;19.50;;;;;23.80;100.00;101322.31;2113184;27;46867;-64
2023/09/27 00:21:00;;;;;;;;;22.50;21.75;;;;;23.80;100.00;101324.16;2113181;27;46302;-65
2023/09/27 00:22:00;;;;;;;;;14.50;13.25;;;;;23.78;100.00;101325.13;2113123;27;46273;-65
2023/09/27 00:23:01;;;;;;;;;19.50;16.25;;;;;23.77;100.00;101322.53;2113051;27;45848;-64
2023/09/27 00:24:01;;;;;;;;;18.00;17.75;;;;;23.76;100.00;101324.38;2113084;27;46419;-65
2023/09/27 00:25:04;;;;;;;;;15.50;15.50;;;;;23.76;100.00;101321.66;2112983;27;45541;-66
2023/09/27 00:26:04;;;;;;;;;35.60;31.20;;;;;23.75;100.00;101329.84;2113532;27;46800;-66
2023/09/27 00:27:05;;;;;;;;;78.75;73.25;;;;;23.74;100.00;101326.28;2113027;27;46678;-64
2023/09/27 00:28:05;;;;;;;;;83.25;77.25;;;;;23.75;100.00;101322.59;2112228;27;46593;-63
2023/09/27 00:29:06;;;;;;;;;80.00;73.75;;;;;23.75;100.00;101330.72;2118051;27;46628;-64
2023/09/27 00:30:09;;;;;;;;;59.50;46.50;;;;;23.76;100.00;101327.06;2112743;27;46736;-63
2023/09/27 00:31:09;;;;;;;;;48.20;37.80;;;;;23.76;100.00;101323.50;2112981;27;47262;-65
2023/09/27 00:32:09;;;;;;;;;52.75;42.00;;;;;23.77;100.00;101327.94;2112984;27;46702;-56
2023/09/27 00:33:09;;;;;;;;;45.00;35.75;;;;;23.85;100.00;101325.56;2112710;27;46607;-61
2023/09/27 00:34:10;;;;;;;;;37.75;32.75;;;;;23.88;100.00;101319.06;2113174;27;45576;-62
2023/09/27 00:35:18;;;;;;;;;33.25;31.50;;;;;23.90;100.00;101317.13;2107274;27;46601;-63
2023/09/27 00:36:19;;;;;;;;;17.40;16.40;;;;;23.92;100.00;101318.75;2108480;27;47330;-65
2023/09/27 00:37:19;;;;;;;;;26.50;23.50;;;;;23.94;100.00;101316.81;2112795;27;46294;-64
2023/09/27 00:38:19;;;;;;;;;20.00;19.50;;;;;23.95;100.00;101321.25;2112522;27;46241;-62
2023/09/27 00:39:20;;;;;;;;;17.00;17.00;;;;;23.95;100.00;101317.69;2112069;27;46458;-64
2023/09/27 00:40:22;;;;;;;;;19.00;19.00;;;;;23.94;100.00;101324.94;2102175;28;46606;-61
2023/09/27 00:41:23;;;;;;;;;20.40;17.20;;;;;23.98;100.00;101331.88;2093763;28;46848;-65
2023/09/27 00:42:23;;;;;;;;;19.25;17.75;;;;;23.99;100.00;101328.19;2099263;27;46303;-64
2023/09/27 00:43:28;;;;;;;;;17.75;16.00;;;;;24.00;100.00;101324.50;2104078;28;46598;-62
2023/09/27 00:44:28;;;;;;;;;19.40;17.60;;;;;24.00;100.00;101315.50;2103392;27;46592;-57
2023/09/27 00:45:28;;;;;;;;;18.50;17.00;;;;;24.00;100.00;101319.09;2108877;27;46724;-61
2023/09/27 00:46:29;;;;;;;;;16.00;16.00;;;;;24.00;100.00;101321.81;2113036;27;46203;-65
2023/09/27 00:47:31;;;;;;;;;14.25;11.75;;;;;24.00;100.00;101313.66;2086432;28;46820;-65
2023/09/27 00:48:34;;;;;;;;;14.60;14.60;;;;;24.01;100.00;101317.25;2086489;28;46660;-65
2023/09/27 00:49:35;;;;;;;;;18.40;17.80;;;;;24.00;100.00;101315.50;2104225;27;46747;-65
2023/09/27 00:50:35;;;;;;;;;18.50;15.00;;;;;23.98;100.00;101312.91;2112947;27;46254;-64
2023/09/27 00:51:37;;;;;;;;;16.25;14.75;;;;;23.97;100.00;101304.88;2112564;27;46439;-64
2023/09/27 00:52:40;;;;;;;;;17.80;16.40;;;;;23.97;100.00;101304.88;2112793;27;46370;-65
2023/09/27 00:53:41;;;;;;;;;18.00;14.80;;;;;23.95;100.00;101304.13;2108820;27;46432;-65
2023/09/27 00:54:42;;;;;;;;;16.60;16.60;;;;;23.93;100.00;101296.09;2104422;28;46190;-65
2023/09/27 00:55:42;;;;;;;;;16.75;16.00;;;;;23.91;100.00;101298.06;2113029;27;46023;-62
2023/09/27 00:56:43;;;;;;;;;18.00;16.00;;;;;23.92;100.00;101301.63;2113262;27;46409;-66
2023/09/27 00:57:44;;;;;;;;;17.25;14.50;;;;;23.91;100.00;101305.31;2109489;27;47313;-67
2023/09/27 00:58:44;;;;;;;;;15.00;15.00;;;;;23.92;100.00;101304.34;2111274;27;46848;-62
2023/09/27 00:59:45;;;;;;;;;13.00;12.25;;;;;23.90;100.00;101307.16;2113819;27;46150;-65
2023/09/27 01:00:50;;;;;;;;;14.00;14.00;;;;;23.90;100.00;101309.00;2113950;27;46342;-65
2023/09/27 01:01:52;;;;;;;;;16.00;14.40;;;;;23.88;100.00;101308.22;2110691;27;46620;-62
2023/09/27 01:02:53;;;;;;;;;17.00;16.00;;;;;23.88;100.00;101309.09;2114539;27;46108;-61
2023/09/27 01:03:53;;;;;;;;;16.50;16.00;;;;;23.88;100.00;101306.38;2114498;27;46617;-62
2023/09/27 01:04:54;;;;;;;;;14.50;14.25;;;;;23.89;100.00;101307.28;2114060;27;46396;-63
2023/09/27 01:05:55;;;;;;;;;16.00;14.00;;;;;23.89;100.00;101301.84;2105337;28;46941;-62
2023/09/27 01:06:55;;;;;;;;;12.75;12.75;;;;;23.90;100.00;101307.16;2097135;28;45845;-66
2023/09/27 01:07:55;;;;;;;;;17.25;17.25;;;;;23.90;100.00;101304.44;2105026;28;46281;-63
2023/09/27 01:08:56;;;;;;;;;17.25;15.25;;;;;23.91;100.00;101305.31;2114328;27;46858;-64
2023/09/27 01:09:56;;;;;;;;;16.00;15.25;;;;;23.90;100.00;101301.75;2114190;27;46543;-65
2023/09/27 01:10:56;;;;;;;;;14.25;14.25;;;;;23.89;100.00;101305.44;2114291;27;46414;-62
2023/09/27 01:11:57;;;;;;;;;15.00;14.25;;;;;23.86;100.00;101302.03;2114576;27;45058;-65
2023/09/27 01:12:57;;;;;;;;;15.00;15.00;;;;;23.88;100.00;101300.94;2114597;27;46539;-65
2023/09/27 01:13:58;;;;;;;;;15.75;14.75;;;;;23.85;100.00;101293.03;2114021;27;46433;-65
2023/09/27 01:14:59;;;;;;;;;15.25;13.50;;;;;23.86;100.00;101288.47;2114560;27;46286;-63
2023/09/27 01:16:00;;;;;;;;;12.00;11.80;;;;;23.85;100.00;101292.16;2111568;27;46649;-62
2023/09/27 01:17:10;;;;;;;;;13.50;13.50;;;;;23.84;100.00;101299.44;2106113;27;46705;-64
2023/09/27 01:18:10;;;;;;;;;14.20;14.20;;;;;23.82;100.00;101297.81;2112860;27;46865;-64
2023/09/27 01:19:12;;;;;;;;;20.50;18.00;;;;;23.80;100.00;101295.19;2114371;27;46345;-65
2023/09/27 01:20:12;;;;;;;;;14.20;14.20;;;;;23.79;100.00;101293.47;2114419;27;46831;-64
2023/09/27 01:21:18;;;;;;;;;12.25;12.25;;;;;23.76;100.00;101293.69;2114504;27;46728;-64
2023/09/27 01:22:19;;;;;;;;;13.60;13.60;;;;;23.75;100.00;101294.63;2115722;27;46962;-62
2023/09/27 01:23:19;;;;;;;;;16.25;16.25;;;;;23.74;100.00;101291.03;2122836;27;46286;-62
2023/09/27 01:24:20;;;;;;;;;13.25;12.00;;;;;23.73;100.00;101296.56;2112496;27;46370;-65
2023/09/27 01:25:22;;;;;;;;;16.50;15.50;;;;;23.74;100.00;101301.03;2105151;28;46909;-63
2023/09/27 01:26:23;;;;;;;;;18.40;16.60;;;;;23.74;100.00;101299.19;2105452;27;46466;-65
2023/09/27 01:27:23;;;;;;;;;15.80;14.60;;;;;23.76;100.00;101296.38;2114302;27;46872;-64
2023/09/27 01:28:24;;;;;;;;;15.50;14.25;;;;;23.74;100.00;101301.88;2114395;27;46263;-64
2023/09/27 01:29:24;;;;;;;;;16.00;16.00;;;;;23.72;100.00;101294.84;2114510;27;45523;-62
2023/09/27 01:30:25;;;;;;;;;14.25;14.25;;;;;23.73;100.00;101291.16;2114271;27;46112;-65
2023/09/27 01:31:26;;;;;;;;;15.00;14.00;;;;;23.73;100.00;101297.44;2114145;27;45533;-64
2023/09/27 01:32:26;;;;;;;;;15.75;14.75;;;;;23.70;100.00;101299.50;2114064;27;46412;-64
2023/09/27 01:33:27;;;;;;;;;14.50;13.25;;;;;23.71;100.00;101293.97;2114078;27;46887;-64
2023/09/27 01:34:27;;;;;;;;;16.20;16.20;;;;;23.71;100.00;101304.81;2114068;27;47195;-61
2023/09/27 01:35:28;;;;;;;;;15.50;15.50;;;;;23.71;100.00;101306.66;2110300;27;46445;-64
2023/09/27 01:36:29;;;;;;;;;15.75;14.00;;;;;23.69;100.00;101309.47;2114369;27;46701;-65
2023/09/27 01:37:32;;;;;;;;;18.50;14.50;;;;;23.69;100.00;101309.47;2105309;28;46278;-65
2023/09/27 01:38:33;;;;;;;;;16.20;14.20;;;;;23.67;100.00;101313.25;2096061;28;46701;-65
2023/09/27 01:39:33;;;;;;;;;19.60;17.00;;;;;23.66;100.00;101311.53;2107297;27;46444;-63
2023/09/27 01:40:42;;;;;;;;;15.00;14.75;;;;;23.65;100.00;101307.94;2110402;27;46509;-64
2023/09/27 01:41:42;;;;;;;;;16.80;16.80;;;;;23.62;100.00;101313.56;2112249;27;46736;-63
2023/09/27 01:42:44;;;;;;;;;15.50;15.00;;;;;23.64;100.00;101316.19;2107719;27;46604;-65
2023/09/27 01:43:44;;;;;;;;;18.20;17.60;;;;;23.64;100.00;101311.63;2110365;27;46542;-64
2023/09/27 01:44:44;;;;;;;;;17.00;15.00;;;;;23.64;100.00;101308.06;2109945;27;46318;-63
2023/09/27 01:45:44;;;;;;;;;14.75;14.00;;;;;23.63;100.00;101307.19;2108430;27;46497;-62
2023/09/27 01:46:45;;;;;;;;;16.50;14.75;;;;;23.62;100.00;101299.13;2104099;28;46263;-64
2023/09/27 01:47:45;;;;;;;;;15.50;12.25;;;;;23.61;100.00;101300.09;2104560;28;46573;-65
2023/09/27 01:48:46;;;;;;;;;15.25;15.25;;;;;23.61;100.00;101300.97;2104353;28;46647;-62
2023/09/27 01:49:46;;;;;;;;;17.00;15.75;;;;;23.61;100.00;101292.84;2098811;28;46670;-63
2023/09/27 01:50:46;;;;;;;;;12.25;11.00;;;;;23.64;100.00;101298.09;2100182;28;46592;-62
2023/09/27 01:51:49;;;;;;;;;14.50;14.25;;;;;23.63;100.00;101293.63;2094562;28;46221;-65
2023/09/27 01:52:53;;;;;;;;;14.80;12.60;;;;;23.58;100.00;101295.75;2087915;28;46140;-65
2023/09/27 01:53:53;;;;;;;;;16.80;15.80;;;;;23.58;100.00;101306.59;2092620;28;46355;-63
2023/09/27 01:54:54;;;;;;;;;15.25;13.75;;;;;23.62;100.00;101308.13;2104549;28;45025;-60
2023/09/27 01:55:54;;;;;;;;;13.00;12.50;;;;;23.62;100.00;101315.38;2104509;28;46523;-63
2023/09/27 01:56:54;;;;;;;;;15.25;14.25;;;;;23.59;100.00;101312.88;2096340;28;46506;-63
2023/09/27 01:57:56;;;;;;;;;15.00;14.25;;;;;23.56;100.00;101318.50;2095904;28;46300;-62
2023/09/27 01:58:56;;;;;;;;;12.60;12.60;;;;;23.56;100.00;101316.66;2104875;28;46584;-66
2023/09/27 01:59:56;;;;;;;;;14.50;14.50;;;;;23.55;100.00;101316.75;2104641;28;46495;-62
2023/09/27 02:00:57;;;;;;;;;14.50;14.00;;;;;23.53;100.00;101316.00;2100940;28;46295;-64
2023/09/27 02:01:57;;;;;;;;;19.50;17.75;;;;;23.52;100.00;101312.41;2100843;28;46756;-64
2023/09/27 02:03:00;;;;;;;;;15.75;14.25;;;;;23.53;100.00;101313.28;2088177;28;45516;-65
2023/09/27 02:04:00;;;;;;;;;16.60;16.60;;;;;23.52;100.00;101314.25;2087880;28;46769;-65
2023/09/27 02:05:03;;;;;;;;;17.25;17.25;;;;;23.52;100.00;101315.13;2104181;28;46764;-63
2023/09/27 02:06:03;;;;;;;;;16.80;16.00;;;;;23.52;100.00;101314.25;2103317;28;46847;-62
2023/09/27 02:07:04;;;;;;;;;16.00;16.00;;;;;23.51;100.00;101326.94;2103438;28;46738;-65
2023/09/27 02:08:05;;;;;;;;;16.00;15.75;;;;;23.51;100.00;101324.22;2104318;28;46497;-65
2023/09/27 02:09:06;;;;;;;;;17.20;14.00;;;;;23.52;100.00;101322.38;2091722;28;46384;-63
2023/09/27 02:10:07;;;;;;;;;17.75;15.00;;;;;23.52;100.00;101327.81;2095261;28;46269;-65
2023/09/27 02:11:07;;;;;;;;;12.60;12.20;;;;;23.51;100.00;101317.94;2103009;27;46888;-61
2023/09/27 02:12:08;;;;;;;;;14.00;13.25;;;;;23.49;100.00;101315.31;2104603;28;45382;-64
2023/09/27 02:13:08;;;;;;;;;14.00;12.50;;;;;23.49;100.00;101316.16;2104489;28;46364;-64
2023/09/27 02:14:08;;;;;;;;;16.25;13.00;;;;;23.49;100.00;101299.03;2104396;28;46871;-64
2023/09/27 02:15:10;;;;;;;;;15.25;13.75;;;;;23.51;100.00;101310.69;2104341;27;46412;-66
2023/09/27 02:16:11;;;;;;;;;16.80;14.80;;;;;23.49;100.00;101308.03;2104990;28;46523;-65
2023/09/27 02:17:11;;;;;;;;;15.00;12.75;;;;;23.49;100.00;101315.31;2104266;27;46443;-65
2023/09/27 02:18:11;;;;;;;;;15.00;14.00;;;;;23.47;100.00;101315.41;2104555;28;46486;-62
2023/09/27 02:19:12;;;;;;;;;14.00;14.00;;;;;23.47;100.00;101318.13;2104796;28;46897;-64
2023/09/27 02:20:17;;;;;;;;;16.60;16.20;;;;;23.46;100.00;101310.97;2104404;27;46477;-63
2023/09/27 02:21:18;;;;;;;;;16.20;15.60;;;;;23.45;100.00;101311.06;2104712;28;46002;-65
2023/09/27 02:22:18;;;;;;;;;18.75;18.00;;;;;23.43;100.00;101303.03;2104745;27;46550;-64
2023/09/27 02:23:18;;;;;;;;;15.25;14.00;;;;;23.44;100.00;101306.63;2109156;27;46462;-66
2023/09/27 02:24:19;;;;;;;;;16.25;16.25;;;;;23.42;100.00;101300.44;2113869;27;46682;-66
2023/09/27 02:25:19;;;;;;;;;16.50;16.50;;;;;23.43;100.00;101304.88;2114005;27;45956;-66
2023/09/27 02:26:19;;;;;;;;;14.50;14.50;;;;;23.41;100.00;101304.13;2093978;28;46385;-64
2023/09/27 02:27:20;;;;;;;;;15.25;14.25;;;;;23.41;100.00;101293.28;2095919;28;45490;-64
2023/09/27 02:28:21;;;;;;;;;16.25;16.00;;;;;23.40;100.00;101295.13;2095622;28;46198;-64
2023/09/27 02:29:21;;;;;;;;;13.50;13.50;;;;;23.41;100.00;101294.16;2089659;28;46222;-65
2023/09/27 02:30:21;;;;;;;;;15.50;14.25;;;;;23.39;100.00;101287.09;2096435;28;46775;-65
2023/09/27 02:31:22;;;;;;;;;18.00;16.25;;;;;23.38;100.00;101286.25;2096105;28;46127;-66
2023/09/27 02:32:22;;;;;;;;;14.75;14.75;;;;;23.36;100.00;101287.28;2087716;28;46343;-65
2023/09/27 02:33:22;;;;;;;;;18.25;15.75;;;;;23.37;100.00;101283.59;2087976;28;46378;-65
2023/09/27 02:34:23;;;;;;;;;13.00;13.00;;;;;23.36;100.00;101292.72;2095903;28;46749;-65
2023/09/27 02:35:23;;;;;;;;;16.75;16.75;;;;;23.35;100.00;101290.97;2092467;28;46628;-63
2023/09/27 02:36:23;;;;;;;;;14.25;13.75;;;;;23.36;100.00;101295.41;2096061;28;46394;-63
2023/09/27 02:37:24;;;;;;;;;19.25;16.50;;;;;23.35;100.00;101296.38;2096108;28;46696;-64
2023/09/27 02:38:25;;;;;;;;;18.00;16.75;;;;;23.33;100.00;101291.06;2095658;28;46405;-65
2023/09/27 02:39:26;;;;;;;;;18.00;15.20;;;;;23.33;100.00;101293.78;2095219;28;46828;-64
2023/09/27 02:40:27;;;;;;;;;15.00;15.00;;;;;23.32;100.00;101297.47;2094719;28;46519;-62
2023/09/27 02:41:27;;;;;;;;;14.50;14.50;;;;;23.32;100.00;101297.47;2094671;28;46317;-64
2023/09/27 02:42:27;;;;;;;;;13.00;12.00;;;;;23.31;100.00;101290.31;2078565;28;46453;-63
2023/09/27 02:43:28;;;;;;;;;14.25;14.25;;;;;23.31;100.00;101298.44;2078652;28;46354;-65
2023/09/27 02:44:28;;;;;;;;;12.25;11.50;;;;;23.31;100.00;101306.56;2096008;28;46675;-65
2023/09/27 02:45:28;;;;;;;;;15.00;14.00;;;;;23.32;100.00;101300.16;2095468;28;46243;-60
2023/09/27 02:46:29;;;;;;;;;15.50;15.00;;;;;23.31;100.00;101300.28;2087872;28;45205;-63
2023/09/27 02:47:30;;;;;;;;;14.50;14.50;;;;;23.28;100.00;101301.34;2087556;28;46575;-65
2023/09/27 02:48:31;;;;;;;;;14.60;14.00;;;;;23.27;100.00;101296.91;2095813;28;46623;-62
2023/09/27 02:49:36;;;;;;;;;14.00;13.25;;;;;23.28;100.00;101298.66;2096050;28;46883;-64
2023/09/27 02:50:36;;;;;;;;;12.60;12.60;;;;;23.27;100.00;101302.31;2095080;28;46447;-66
2023/09/27 02:51:37;;;;;;;;;12.50;12.50;;;;;23.27;100.00;101301.47;2093885;28;46584;-65
2023/09/27 02:52:41;;;;;;;;;16.00;15.50;;;;;23.27;100.00;101301.47;2095548;28;46213;-65
2023/09/27 02:53:41;;;;;;;;;18.60;16.00;;;;;23.27;100.00;101310.44;2088937;28;46276;-65
2023/09/27 02:54:45;;;;;;;;;14.50;14.25;;;;;23.27;100.00;101304.16;2092876;28;46973;-63
2023/09/27 02:55:46;;;;;;;;;13.40;12.40;;;;;23.32;100.00;101302.88;2095786;28;46205;-65
2023/09/27 02:56:47;;;;;;;;;16.25;15.50;;;;;23.29;100.00;101303.09;2090383;28;46413;-66
2023/09/27 02:57:50;;;;;;;;;14.20;14.00;;;;;23.27;100.00;101302.31;2073975;28;45940;-62
2023/09/27 02:58:51;;;;;;;;;16.20;15.80;;;;;23.26;100.00;101305.13;2088586;28;46754;-66
2023/09/27 02:59:51;;;;;;;;;15.60;15.60;;;;;23.26;100.00;101297.00;2113158;27;46374;-65
2023/09/27 03:00:52;;;;;;;;;15.50;15.50;;;;;23.27;100.00;101299.63;2116585;27;46410;-64
2023/09/27 03:01:52;;;;;;;;;16.50;15.50;;;;;23.26;100.00;101300.59;2113349;27;46329;-62
2023/09/27 03:02:53;;;;;;;;;17.75;15.50;;;;;23.26;100.00;101308.72;2113803;27;46728;-63
2023/09/27 03:03:54;;;;;;;;;18.75;18.00;;;;;23.24;100.00;101310.63;2113576;27;46411;-66
2023/09/27 03:04:55;;;;;;;;;16.60;15.80;;;;;23.23;100.00;101310.72;2113704;27;46370;-65
2023/09/27 03:05:57;;;;;;;;;12.40;12.40;;;;;23.25;100.00;101306.06;2104394;28;47023;-63
2023/09/27 03:06:59;;;;;;;;;16.40;13.60;;;;;23.24;100.00;101302.50;2104525;27;46597;-61
2023/09/27 03:07:59;;;;;;;;;18.00;15.80;;;;;23.25;100.00;101303.38;2106410;27;46727;-60
2023/09/27 03:09:00;;;;;;;;;14.25;14.25;;;;;23.24;100.00;101304.34;2107995;27;46226;-64
2023/09/27 03:10:02;;;;;;;;;16.00;15.75;;;;;23.23;100.00;101289.06;2114035;27;45910;-63
2023/09/27 03:11:03;;;;;;;;;17.60;14.80;;;;;23.25;100.00;101292.53;2113380;27;46990;-66
2023/09/27 03:12:04;;;;;;;;;16.80;16.80;;;;;23.22;100.00;101285.50;2114052;27;46429;-63
2023/09/27 03:13:05;;;;;;;;;14.75;14.75;;;;;23.20;100.00;101296.44;2114420;27;45614;-65
2023/09/27 03:14:06;;;;;;;;;11.80;11.60;;;;;23.18;100.00;101283.97;2102759;28;46816;-62
2023/09/27 03:15:11;;;;;;;;;16.25;15.75;;;;;23.17;100.00;101293.94;2095335;28;46528;-65
2023/09/27 03:16:12;;;;;;;;;14.20;14.20;;;;;23.16;100.00;101289.47;2099013;28;46505;-63
2023/09/27 03:17:12;;;;;;;;;16.00;14.50;;;;;23.17;100.00;101288.50;2110493;27;46057;-60
2023/09/27 03:18:12;;;;;;;;;14.25;14.25;;;;;23.18;100.00;101292.94;2105338;27;46320;-64
2023/09/27 03:19:13;;;;;;;;;17.00;15.50;;;;;23.16;100.00;101285.91;2113426;27;46867;-65
2023/09/27 03:20:16;;;;;;;;;16.25;14.75;;;;;23.13;100.00;101289.69;2113184;27;46454;-65
2023/09/27 03:21:17;;;;;;;;;17.00;16.80;;;;;23.15;100.00;101286.88;2113801;27;46573;-65
2023/09/27 03:22:17;;;;;;;;;16.00;16.00;;;;;23.15;100.00;101293.16;2108011;27;46598;-64
2023/09/27 03:23:17;;;;;;;;;14.50;14.50;;;;;23.18;100.00;101292.09;2105056;27;46258;-63
2023/09/27 03:24:18;;;;;;;;;16.50;15.50;;;;;23.17;100.00;101288.50;2114201;27;46316;-62
2023/09/27 03:25:18;;;;;;;;;17.25;16.00;;;;;23.15;100.00;101286.88;2113018;27;46469;-63
2023/09/27 03:26:20;;;;;;;;;14.25;14.00;;;;;23.17;100.00;101282.22;2104040;28;46753;-66
2023/09/27 03:27:20;;;;;;;;;15.00;15.00;;;;;23.14;100.00;101277.03;2104096;27;46340;-65
2023/09/27 03:28:21;;;;;;;;;15.75;15.75;;;;;23.15;100.00;101276.91;2113234;27;46428;-65
2023/09/27 03:29:21;;;;;;;;;14.50;13.25;;;;;23.14;100.00;101271.59;2102916;28;46304;-60
2023/09/27 03:30:22;;;;;;;;;16.75;16.25;;;;;23.13;100.00;101269.88;2097394;28;46547;-66
2023/09/27 03:31:22;;;;;;;;;12.25;12.25;;;;;23.12;100.00;101268.09;2105643;27;46134;-61
2023/09/27 03:32:23;;;;;;;;;16.75;14.25;;;;;23.11;100.00;101275.34;2103115;28;46322;-66
2023/09/27 03:33:23;;;;;;;;;15.25;14.75;;;;;23.12;100.00;101269.00;2104227;27;46062;-66
2023/09/27 03:34:23;;;;;;;;;15.75;15.75;;;;;23.12;100.00;101271.72;2113341;27;45629;-65
2023/09/27 03:35:23;;;;;;;;;14.00;14.00;;;;;23.12;100.00;101273.50;2114229;27;46981;-65
2023/09/27 03:36:24;;;;;;;;;14.75;14.00;;;;;23.11;100.00;101272.66;2113339;27;46774;-64
2023/09/27 03:37:24;;;;;;;;;14.75;14.25;;;;;;;;2113206;27;46128;-65
2023/09/27 03:38:24;;;;;;;;;14.25;13.50;;;;;23.09;100.00;101274.59;2107813;27;46347;-63
2023/09/27 03:39:28;;;;;;;;;13.50;12.75;;;;;;;;2106208;27;46311;-63
2023/09/27 03:40:28;;;;;;;;;13.20;13.20;;;;;23.09;100.00;101265.59;2113686;27;46757;-58
2023/09/27 03:41:29;;;;;;;;;17.00;16.50;;;;;23.06;100.00;101261.25;2112597;27;46862;-63
2023/09/27 03:42:29;;;;;;;;;14.00;14.00;;;;;23.07;100.00;101256.72;2113434;27;45296;-65
2023/09/27 03:43:30;;;;;;;;;13.00;12.00;;;;;23.02;100.00;101251.63;2113379;27;46260;-62
2023/09/27 03:44:30;;;;;;;;;10.00;10.00;;;;;23.07;100.00;101257.59;2113408;27;46889;-65
2023/09/27 03:45:34;;;;;;;;;13.75;12.50;;;;;23.06;100.00;101247.72;2113142;27;45939;-64
2023/09/27 03:46:34;;;;;;;;;14.40;14.00;;;;;23.05;100.00;101253.25;2113259;27;46777;-65
2023/09/27 03:47:34;;;;;;;;;14.00;13.50;;;;;23.00;100.00;101256.25;2113097;27;46538;-63
2023/09/27 03:48:35;;;;;;;;;12.50;11.75;;;;;23.03;100.00;101252.47;2107519;27;45910;-63
2023/09/27 03:49:35;;;;;;;;;14.25;14.25;;;;;23.00;100.00;101258.97;2109390;27;46611;-63
2023/09/27 03:50:35;;;;;;;;;15.00;13.00;;;;;22.99;100.00;101256.34;2113436;27;46881;-64
2023/09/27 03:51:36;;;;;;;;;14.75;14.00;;;;;23.00;100.00;101258.97;2105870;27;46109;-65
2023/09/27 03:52:36;;;;;;;;;11.75;11.75;;;;;23.00;100.00;101256.25;2107209;27;46746;-65
2023/09/27 03:53:36;;;;;;;;;13.75;13.75;;;;;23.00;100.00;101255.41;2113494;27;46492;-60
2023/09/27 03:54:37;;;;;;;;;13.00;12.75;;;;;23.01;100.00;101257.13;2112989;27;46331;-66
2023/09/27 03:55:37;;;;;;;;;13.75;13.75;;;;;23.00;100.00;101255.41;2113629;27;46185;-64
2023/09/27 03:56:37;;;;;;;;;13.75;13.75;;;;;22.99;100.00;101246.38;2113307;27;46290;-63
2023/09/27 03:57:40;;;;;;;;;13.50;13.00;;;;;22.99;100.00;101251.78;2113404;27;46416;-62
2023/09/27 03:58:40;;;;;;;;;13.00;13.00;;;;;22.97;100.00;101248.31;2113168;27;46580;-65
2023/09/27 03:59:40;;;;;;;;;14.75;14.75;;;;;22.99;100.00;101245.50;2113400;27;46298;-64
2023/09/27 04:00:41;;;;;;;;;15.00;15.00;;;;;22.99;100.00;101248.22;2113542;27;46211;-63
2023/09/27 04:01:41;;;;;;;;;16.50;15.00;;;;;22.97;100.00;101251.03;2113224;27;46241;-65
2023/09/27 04:02:41;;;;;;;;;14.25;13.75;;;;;22.97;100.00;101253.72;2107028;27;46201;-65
2023/09/27 04:03:42;;;;;;;;;15.00;14.75;;;;;22.92;100.00;101255.00;2105853;27;46762;-65
2023/09/27 04:04:42;;;;;;;;;14.50;14.50;;;;;22.95;100.00;101250.25;2104485;28;46426;-65
2023/09/27 04:05:43;;;;;;;;;14.50;12.00;;;;;22.95;100.00;101252.09;2094092;28;46342;-65
2023/09/27 04:06:44;;;;;;;;;18.00;16.00;;;;;22.95;100.00;101252.09;2104309;28;46425;-64
2023/09/27 04:07:44;;;;;;;;;13.80;13.80;;;;;22.95;100.00;101246.69;2113739;27;46234;-65
2023/09/27 04:08:44;;;;;;;;;20.25;15.50;;;;;22.94;100.00;101247.66;2112499;27;46726;-63
2023/09/27 04:09:45;;;;;;;;;12.25;12.25;;;;;22.96;100.00;101248.41;2112887;27;45797;-65
2023/09/27 04:10:46;;;;;;;;;13.20;12.20;;;;;22.94;100.00;101248.53;2113245;27;46301;-65
2023/09/27 04:11:46;;;;;;;;;14.00;13.75;;;;;22.93;100.00;101245.91;2112237;27;46540;-66
2023/09/27 04:12:47;;;;;;;;;14.00;12.50;;;;;22.93;100.00;101256.75;2094919;28;46715;-65
2023/09/27 04:13:48;;;;;;;;;14.80;14.60;;;;;22.93;100.00;101243.22;2105827;27;46775;-64
2023/09/27 04:14:48;;;;;;;;;11.25;11.00;;;;;22.93;100.00;101249.50;2112503;27;46359;-65
2023/09/27 04:15:49;;;;;;;;;13.00;13.00;;;;;22.92;100.00;101244.19;2104277;28;46851;-65
2023/09/27 04:16:49;;;;;;;;;14.00;13.00;;;;;22.93;100.00;101241.38;2104288;28;46694;-65
2023/09/27 04:17:50;;;;;;;;;14.00;13.00;;;;;22.90;100.00;101234.31;2112631;27;46462;-65
2023/09/27 04:18:50;;;;;;;;;16.00;14.50;;;;;22.93;100.00;101238.66;2113216;27;46644;-65
2023/09/27 04:19:51;;;;;;;;;12.25;12.25;;;;;22.96;100.00;101237.59;2113412;27;46466;-64
2023/09/27 04:20:52;;;;;;;;;13.80;12.80;;;;;22.94;100.00;101239.53;2111538;27;46602;-64
2023/09/27 04:21:52;;;;;;;;;13.00;13.00;;;;;22.92;100.00;101238.78;2113244;27;46722;-62
2023/09/27 04:22:52;;;;;;;;;13.75;12.50;;;;;22.92;100.00;101236.94;2112380;27;46748;-63
2023/09/27 04:23:57;;;;;;;;;10.50;10.50;;;;;22.95;100.00;101239.44;2118978;27;45479;-64
2023/09/27 04:24:57;;;;;;;;;15.20;15.20;;;;;22.94;100.00;101240.41;2112558;27;46413;-66
2023/09/27 04:25:58;;;;;;;;;12.75;12.00;;;;;22.94;100.00;101237.69;2104928;28;46412;-59
2023/09/27 04:26:59;;;;;;;;;13.75;13.75;;;;;22.98;100.00;101231.09;2104129;28;46164;-60
2023/09/27 04:27:59;;;;;;;;;10.25;10.25;;;;;22.96;100.00;101227.63;2103981;28;46350;-65
2023/09/27 04:29:00;;;;;;;;;14.00;12.75;;;;;22.99;100.00;101232.84;2113192;27;46558;-64
2023/09/27 04:30:00;;;;;;;;;12.50;11.75;;;;;23.02;100.00;101238.06;2106000;27;46444;-65
2023/09/27 04:31:00;;;;;;;;;12.25;12.00;;;;;23.02;100.00;101232.66;2106560;27;46434;-62
2023/09/27 04:32:01;;;;;;;;;13.50;12.25;;;;;23.03;100.00;101237.09;2112942;27;46705;-63
2023/09/27 04:33:02;;;;;;;;;12.00;11.75;;;;;23.03;100.00;101230.81;2112802;27;46168;-62
2023/09/27 04:34:02;;;;;;;;;16.20;13.80;;;;;23.03;100.00;101228.97;2105902;27;46332;-64